Time;durP1;ratioP1;P1;durP2;ratioP2;P2;SDS_P1;SDS_P2;PMS_P1;PMS_P2;Temp;Humidity;BMP_temperature;BMP_pressure;BME280_temperature;BME280_humidity;BME280_pressure;Samples;Min_cycle;Max_cycle;Signal;HPM_P1;HPM_P2
2021/12/27 00:00:48;;;;;;;1.58;1.00;;;;;;;18.65;23.40;98469.63;5134314;27;20026;-65
2021/12/27 00:03:14;;;;;;;1.05;0.75;;;;;;;18.55;23.45;98470.00;5133744;27;20039;-66
2021/12/27 00:05:39;;;;;;;1.08;0.85;;;;;;;18.45;23.52;98469.53;5131470;27;20041;-68
2021/12/27 00:08:05;;;;;;;1.67;1.10;;;;;;;18.39;23.09;98473.00;5133518;27;20383;-64
2021/12/27 00:10:31;;;;;;;1.90;1.17;;;;;;;18.33;23.23;98476.44;5104502;27;20402;-67
2021/12/27 00:12:57;;;;;;;1.45;0.95;;;;;;;18.29;23.28;98479.53;5132590;27;20038;-70
2021/12/27 00:15:24;;;;;;;1.92;0.73;;;;;;;18.28;23.22;98485.06;5132737;27;20034;-66
2021/12/27 00:17:50;;;;;;;2.35;1.45;;;;;;;18.28;23.15;98490.44;5125669;27;20052;-65
2021/12/27 00:20:18;;;;;;;1.88;1.20;;;;;;;18.23;23.13;98483.00;5131833;28;20034;-65
2021/12/27 00:22:45;;;;;;;1.67;1.05;;;;;;;18.21;23.33;98493.06;5132194;28;20039;-65
2021/12/27 00:25:12;;;;;;;2.00;1.27;;;;;;;18.20;22.81;98494.09;5132710;28;20039;-68
2021/12/27 00:27:38;;;;;;;1.50;1.20;;;;;;;18.20;22.97;98488.75;5131262;27;20103;-64
2021/12/27 00:30:05;;;;;;;1.92;1.27;;;;;;;18.22;22.98;98501.94;5133106;28;20497;-65
2021/12/27 00:32:30;;;;;;;2.28;1.33;;;;;;;18.21;23.08;98492.25;5128858;28;20034;-64
2021/12/27 00:34:56;;;;;;;2.03;1.33;;;;;;;18.21;23.10;98497.63;5132327;28;20459;-66
2021/12/27 00:37:21;;;;;;;2.13;1.30;;;;;;;18.20;23.08;98494.09;5133005;28;20035;-62
2021/12/27 00:39:47;;;;;;;1.83;1.25;;;;;;;18.20;23.00;98494.09;5133615;28;20118;-71
2021/12/27 00:42:12;;;;;;;1.52;1.00;;;;;;;18.22;23.03;98504.63;5133179;28;20027;-66
2021/12/27 00:44:38;;;;;;;1.90;1.10;;;;;;;18.23;23.08;98517.81;5133268;28;20031;-67
2021/12/27 00:47:03;;;;;;;1.85;1.30;;;;;;;18.23;22.89;98506.28;5132122;28;20031;-66
2021/12/27 00:49:29;;;;;;;2.30;1.30;;;;;;;18.25;23.00;98498.84;5133521;28;20079;-70
2021/12/27 00:51:55;;;;;;;1.92;0.90;;;;;;;18.30;23.53;98513.34;5132712;28;20520;-66
2021/12/27 00:54:20;;;;;;;4.53;1.02;;;;;;;18.33;23.20;98503.22;5132942;28;20035;-65
2021/12/27 00:56:46;;;;;;;1.92;1.00;;;;;;;18.38;22.80;98511.50;5132402;28;20038;-69
2021/12/27 00:59:11;;;;;;;2.22;1.10;;;;;;;18.40;23.06;98514.81;5132614;27;20038;-65
2021/12/27 01:01:37;;;;;;;3.38;1.35;;;;;;;18.42;23.10;98524.31;5135457;27;20046;-70
2021/12/27 01:04:06;;;;;;;3.13;1.75;;;;;;;18.45;22.84;98533.81;5135749;27;20087;-67
2021/12/27 01:06:33;;;;;;;2.88;1.40;;;;;;;18.42;22.94;98535.00;5126830;27;20032;-67
2021/12/27 01:08:59;;;;;;;9.15;1.80;;;;;;;18.44;22.94;98540.19;5132438;27;20039;-67
2021/12/27 01:11:35;;;;;;;3.40;1.27;;;;;;;18.42;22.92;98536.88;5136326;27;20038;-70
2021/12/27 01:14:11;;;;;;;4.95;1.42;;;;;;;18.41;23.36;98540.59;5136824;27;20109;-69
2021/12/27 01:16:37;;;;;;;2.50;1.80;;;;;;;18.41;23.19;98543.25;5136745;27;20106;-68
2021/12/27 01:19:05;;;;;;;2.42;1.40;;;;;;;18.41;22.83;98548.63;5136376;27;20051;-67
2021/12/27 01:21:31;;;;;;;3.22;1.90;;;;;;;18.43;22.67;98549.25;5137009;27;20198;-68
2021/12/27 01:23:56;;;;;;;3.20;2.63;;;;;;;18.41;22.86;98546.75;5136703;27;20027;-71
2021/12/27 01:26:22;;;;;;;6.45;2.97;;;;;;;18.41;22.92;98548.63;5136350;27;20037;-69
2021/12/27 01:28:48;;;;;;;4.10;2.95;;;;;;;18.41;22.92;98551.28;5136508;27;20096;-68
2021/12/27 01:31:14;;;;;;;4.20;2.33;;;;;;;18.40;22.97;98546.97;5136238;27;20066;-68
2021/12/27 01:33:40;;;;;;;3.42;2.17;;;;;;;18.41;22.88;98553.97;5136252;27;20050;-70
2021/12/27 01:36:07;;;;;;;3.50;2.63;;;;;;;18.39;22.53;98550.66;5136137;27;20034;-69
2021/12/27 01:38:37;;;;;;;3.75;2.20;;;;;;;18.34;22.55;98547.72;5136141;27;20039;-69
2021/12/27 01:41:04;;;;;;;3.42;2.08;;;;;;;18.33;22.67;98556.78;5136361;27;20042;-67
2021/12/27 01:43:33;;;;;;;2.97;1.85;;;;;;;18.32;22.69;98560.47;5131339;27;20514;-67
2021/12/27 01:46:08;;;;;;;2.55;1.90;;;;;;;18.29;22.67;98567.91;5115741;28;20032;-69
2021/12/27 01:48:39;;;;;;;3.13;1.67;;;;;;;18.28;22.64;98552.03;5097146;28;20394;-67
2021/12/27 01:51:10;;;;;;;2.53;1.60;;;;;;;18.30;22.91;98552.66;5115303;28;20035;-71
2021/12/27 01:53:38;;;;;;;2.50;1.50;;;;;;;18.29;22.96;98567.91;5115643;28;20046;-72
2021/12/27 01:56:06;;;;;;;2.88;1.42;;;;;;;18.30;22.75;98563.38;5115792;28;20028;-69
2021/12/27 01:58:32;;;;;;;1.77;1.30;;;;;;;18.32;22.81;98576.56;5115138;28;20039;-70
2021/12/27 02:00:59;;;;;;;1.95;1.23;;;;;;;18.32;22.50;98571.19;5115150;28;20113;-66
2021/12/27 02:03:28;;;;;;;1.98;1.30;;;;;;;18.32;22.55;98581.91;5115333;28;20036;-67
2021/12/27 02:05:55;;;;;;;1.65;1.08;;;;;;;18.32;22.55;98580.06;5115694;28;20043;-70
2021/12/27 02:08:21;;;;;;;2.30;1.60;;;;;;;18.30;22.69;98585.63;5115246;28;20039;-70
2021/12/27 02:10:49;;;;;;;2.67;1.50;;;;;;;18.29;22.57;98589.34;5115336;28;20043;-68
2021/12/27 02:13:14;;;;;;;1.77;1.25;;;;;;;18.31;22.54;98586.44;5114616;28;20532;-68
2021/12/27 02:15:40;;;;;;;2.30;1.42;;;;;;;18.31;22.78;98594.47;5115245;28;20050;-69
2021/12/27 02:18:08;;;;;;;2.63;1.45;;;;;;;18.26;22.48;98592.38;5114688;28;20051;-70
2021/12/27 02:20:36;;;;;;;3.25;1.58;;;;;;;18.27;22.46;98593.22;5114636;27;20045;-66
2021/12/27 02:23:07;;;;;;;1.48;1.10;;;;;;;18.26;22.55;98588.88;5114701;28;20031;-69
2021/12/27 02:25:34;;;;;;;1.55;1.25;;;;;;;18.24;22.97;98586.41;5115063;28;20046;-67
2021/12/27 02:28:04;;;;;;;2.25;1.30;;;;;;;18.29;22.70;98594.69;5114657;28;20082;-66
2021/12/27 02:30:30;;;;;;;2.03;1.25;;;;;;;18.29;23.08;98599.19;5115023;28;20122;-69
2021/12/27 02:33:07;;;;;;;3.47;1.40;;;;;;;18.30;23.01;98601.69;5119561;27;20031;-68
2021/12/27 02:35:45;;;;;;;1.50;1.13;;;;;;;18.28;23.17;98598.38;5135392;27;20038;-70
2021/12/27 02:38:15;;;;;;;2.88;1.48;;;;;;;18.28;22.74;98605.56;5134971;27;20402;-69
2021/12/27 02:40:42;;;;;;;3.42;1.55;;;;;;;18.26;23.02;98597.75;5135320;27;20110;-68
2021/12/27 02:43:07;;;;;;;2.47;1.20;;;;;;;18.26;22.97;98605.78;5132968;27;20501;-70
2021/12/27 02:45:37;;;;;;;2.83;1.42;;;;;;;18.26;22.81;98612.97;5114401;28;20062;-70
2021/12/27 02:48:05;;;;;;;2.47;1.57;;;;;;;18.23;22.93;98619.53;5114539;28;20031;-68
2021/12/27 02:50:31;;;;;;;1.23;1.13;;;;;;;18.21;22.91;98613.56;5114777;28;20041;-67
2021/12/27 02:52:58;;;;;;;1.83;1.20;;;;;;;18.22;23.05;98619.75;5114071;28;20038;-68
2021/12/27 02:55:24;;;;;;;1.55;1.15;;;;;;;18.23;22.85;98624.09;5114429;28;20038;-70
2021/12/27 02:57:50;;;;;;;2.17;1.45;;;;;;;18.20;22.88;98638.66;5114226;28;20035;-71
2021/12/27 03:00:24;;;;;;;2.10;1.40;;;;;;;18.22;22.91;98641.16;5131876;27;20027;-70
2021/12/27 03:02:51;;;;;;;1.50;1.10;;;;;;;18.23;22.72;98642.84;5134757;27;20058;-70
2021/12/27 03:05:19;;;;;;;3.35;1.70;;;;;;;18.23;23.09;98640.97;5135045;27;20154;-69
2021/12/27 03:07:47;;;;;;;1.75;1.30;;;;;;;18.22;22.87;98651.88;5134325;27;20035;-68
2021/12/27 03:10:16;;;;;;;2.28;1.35;;;;;;;18.21;22.96;98656.41;5134655;27;20378;-67
2021/12/27 03:12:43;;;;;;;2.28;1.40;;;;;;;18.20;23.08;98646.69;5134582;27;20035;-71
2021/12/27 03:15:10;;;;;;;2.35;1.60;;;;;;;18.21;22.74;98655.56;5135131;27;20083;-66
2021/12/27 03:17:37;;;;;;;2.63;1.50;;;;;;;18.20;22.79;98659.28;5134036;27;20055;-68
2021/12/27 03:20:07;;;;;;;2.30;1.30;;;;;;;18.20;22.86;98657.41;5133994;27;20031;-68
2021/12/27 03:22:33;;;;;;;2.00;1.38;;;;;;;18.22;22.78;98662.59;5133684;27;20039;-69
2021/12/27 03:24:59;;;;;;;1.88;1.35;;;;;;;18.21;23.25;98653.72;5133919;27;20062;-69
2021/12/27 03:27:25;;;;;;;1.90;1.17;;;;;;;18.25;23.04;98663.03;5133998;27;20541;-67
2021/12/27 03:29:51;;;;;;;1.73;1.20;;;;;;;18.26;23.10;98662.00;5134069;27;20140;-70
2021/12/27 03:32:18;;;;;;;1.90;1.20;;;;;;;18.27;23.11;98677.06;5133907;27;20038;-69
2021/12/27 03:34:54;;;;;;;2.60;1.80;;;;;;;18.28;23.18;98684.06;5134243;27;20042;-71
2021/12/27 03:37:24;;;;;;;2.67;1.50;;;;;;;18.29;22.56;98680.38;5134030;27;20034;-71
2021/12/27 03:39:50;;;;;;;1.80;1.30;;;;;;;18.27;23.14;98681.56;5133773;27;20093;-67
2021/12/27 03:42:17;;;;;;;1.40;1.08;;;;;;;18.26;23.43;98686.09;5115270;27;20057;-66
2021/12/27 03:44:43;;;;;;;1.90;1.20;;;;;;;18.27;23.28;98689.59;5118676;27;20058;-67
2021/12/27 03:47:09;;;;;;;1.63;1.17;;;;;;;18.27;23.32;98694.97;5113177;28;20035;-70
2021/12/27 03:49:35;;;;;;;2.15;1.42;;;;;;;18.29;23.34;98691.09;5113716;28;20122;-70
2021/12/27 03:52:00;;;;;;;2.65;1.73;;;;;;;18.32;23.43;98699.72;5113023;28;20115;-71
2021/12/27 03:54:26;;;;;;;2.42;1.52;;;;;;;18.32;23.54;98691.69;5113273;28;20035;-70
2021/12/27 03:56:51;;;;;;;1.90;1.27;;;;;;;18.39;23.34;98709.47;5113201;28;20118;-70
2021/12/27 03:59:36;;;;;;;1.25;0.93;;;;;;;18.38;23.12;98715.88;5122575;27;20070;-67
2021/12/27 04:02:04;;;;;;;2.80;1.67;;;;;;;18.35;23.15;98715.41;5133741;27;20427;-68
2021/12/27 04:04:30;;;;;;;1.83;1.33;;;;;;;18.32;23.29;98713.97;5133773;27;20033;-69
2021/12/27 04:06:56;;;;;;;1.90;1.27;;;;;;;18.33;23.37;98720.13;5133592;27;20034;-66
2021/12/27 04:09:22;;;;;;;1.73;1.20;;;;;;;18.33;23.27;98722.81;5134041;27;20381;-69
2021/12/27 04:11:47;;;;;;;2.50;1.65;;;;;;;18.32;23.02;98735.38;5133195;27;20509;-69
2021/12/27 04:14:13;;;;;;;1.50;1.13;;;;;;;18.30;23.60;98732.06;5133980;27;20031;-69
2021/12/27 04:16:38;;;;;;;1.80;1.40;;;;;;;18.30;23.43;98735.59;5133635;27;20080;-69
2021/12/27 04:19:04;;;;;;;2.08;1.45;;;;;;;18.31;23.35;98744.44;5114773;28;20497;-69
2021/12/27 04:21:30;;;;;;;1.67;1.15;;;;;;;18.32;23.46;98745.25;5133363;27;20108;-69
2021/12/27 04:23:55;;;;;;;1.80;1.42;;;;;;;18.29;23.15;98736.63;5133618;28;20042;-69
2021/12/27 04:26:22;;;;;;;2.60;1.52;;;;;;;18.29;22.81;98738.44;5133549;28;20133;-69
2021/12/27 04:28:49;;;;;;;2.33;1.63;;;;;;;18.27;22.81;98744.00;5133589;28;20083;-69
2021/12/27 04:31:14;;;;;;;1.98;1.55;;;;;;;18.29;22.96;98741.13;5133167;28;20121;-69
2021/12/27 04:33:40;;;;;;;1.98;1.50;;;;;;;18.25;22.82;98729.97;5133522;28;20476;-69
2021/12/27 04:36:06;;;;;;;2.42;1.50;;;;;;;18.26;23.10;98747.69;5137161;27;20031;-69
2021/12/27 04:38:32;;;;;;;2.03;1.30;;;;;;;18.25;22.78;98748.72;5137436;27;20066;-68
2021/12/27 04:40:58;;;;;;;2.10;1.15;;;;;;;18.24;23.08;98744.38;5137951;27;20031;-69
2021/12/27 04:43:24;;;;;;;1.55;1.15;;;;;;;18.23;23.52;98748.06;5118779;27;20050;-69
2021/12/27 04:45:51;;;;;;;2.03;1.65;;;;;;;18.27;23.19;98756.53;5137203;27;20242;-68
2021/12/27 04:48:18;;;;;;;2.28;1.60;;;;;;;18.25;22.96;98767.47;5137115;27;20038;-69
2021/12/27 04:50:44;;;;;;;1.98;1.42;;;;;;;18.21;22.81;98758.13;5118698;27;20464;-68
2021/12/27 04:53:09;;;;;;;2.08;1.40;;;;;;;18.22;23.12;98778.53;5118625;27;20027;-68
2021/12/27 04:55:35;;;;;;;1.80;1.40;;;;;;;18.23;22.69;98777.53;5137050;27;20087;-69
2021/12/27 04:58:02;;;;;;;2.28;1.30;;;;;;;18.23;22.97;98777.53;5136913;27;20047;-68
2021/12/27 05:00:29;;;;;;;1.60;1.20;;;;;;;18.23;23.17;98788.22;5136825;27;20045;-68
2021/12/27 05:02:54;;;;;;;2.92;1.80;;;;;;;18.24;22.91;98784.53;5137011;27;20498;-69
2021/12/27 05:05:20;;;;;;;1.58;1.27;;;;;;;18.25;22.95;98788.88;5136921;27;20077;-68
2021/12/27 05:07:47;;;;;;;2.63;1.25;;;;;;;18.24;23.44;98783.69;5136832;27;20035;-68
2021/12/27 05:10:16;;;;;;;1.55;1.13;;;;;;;18.23;23.23;98790.09;5136872;27;20046;-69
2021/12/27 05:12:41;;;;;;;2.30;1.48;;;;;;;18.23;23.29;98788.22;5136738;27;20038;-69
2021/12/27 05:15:07;;;;;;;1.92;1.20;;;;;;;18.20;23.21;98798.50;5136810;27;20038;-69
2021/12/27 05:17:33;;;;;;;2.33;1.58;;;;;;;18.19;23.53;98805.69;5136793;27;20137;-70
2021/12/27 05:19:59;;;;;;;1.70;1.40;;;;;;;18.19;23.41;98794.16;5137316;27;20031;-69
2021/12/27 05:22:25;;;;;;;2.72;1.60;;;;;;;18.18;23.27;98798.66;5136763;27;20035;-69
2021/12/27 05:24:50;;;;;;;2.08;1.67;;;;;;;18.18;23.34;98811.25;5136859;27;20405;-70
2021/12/27 05:27:16;;;;;;;2.28;1.30;;;;;;;18.20;23.39;98814.56;5117972;27;20496;-70
2021/12/27 05:29:41;;;;;;;2.40;1.60;;;;;;;18.21;23.57;98813.56;5136435;27;20034;-70
2021/12/27 05:32:07;;;;;;;2.72;1.60;;;;;;;18.22;23.57;98815.22;5136657;27;20034;-70
2021/12/27 05:34:33;;;;;;;3.22;1.60;;;;;;;18.21;23.33;98816.22;5136135;27;20035;-69
2021/12/27 05:36:59;;;;;;;3.20;1.83;;;;;;;18.19;23.34;98823.63;5136477;27;20042;-69
2021/12/27 05:39:25;;;;;;;2.53;1.52;;;;;;;18.18;22.94;98828.13;5117875;27;20031;-69
2021/12/27 05:41:50;;;;;;;2.65;1.70;;;;;;;18.18;22.93;98833.47;5136388;27;20050;-69
2021/12/27 05:44:17;;;;;;;2.25;1.40;;;;;;;18.19;23.10;98835.13;5124390;27;20035;-69
2021/12/27 05:46:43;;;;;;;2.08;1.40;;;;;;;18.15;23.01;98840.03;5114732;28;20084;-70
2021/12/27 05:49:08;;;;;;;2.22;1.30;;;;;;;18.16;23.02;98851.56;5115601;28;20035;-69
2021/12/27 05:51:36;;;;;;;2.35;1.50;;;;;;;18.15;23.31;98848.06;5120326;27;20042;-69
2021/12/27 05:54:03;;;;;;;2.05;1.33;;;;;;;18.16;23.37;98862.28;5135369;27;20062;-68
2021/12/27 05:56:29;;;;;;;1.45;1.05;;;;;;;18.17;23.25;98865.81;5136129;27;20031;-69
2021/12/27 05:58:54;;;;;;;3.30;1.75;;;;;;;18.16;23.35;98875.66;5135694;27;20371;-69
2021/12/27 06:01:20;;;;;;;2.55;1.48;;;;;;;18.15;23.38;98866.00;5135541;27;20050;-68
2021/12/27 06:03:45;;;;;;;2.05;1.48;;;;;;;18.14;23.31;98872.38;5134801;27;20057;-69
2021/12/27 06:06:11;;;;;;;2.03;1.33;;;;;;;18.14;23.18;98867.84;5135955;27;20031;-69
2021/12/27 06:08:36;;;;;;;2.38;1.40;;;;;;;18.13;23.16;98868.03;5134580;27;20443;-68
2021/12/27 06:11:02;;;;;;;2.00;1.50;;;;;;;18.13;23.26;98876.06;5135868;27;20118;-70
2021/12/27 06:13:27;;;;;;;1.73;1.30;;;;;;;18.12;23.23;98877.91;5135804;27;20039;-69
2021/12/27 06:15:53;;;;;;;2.28;1.52;;;;;;;18.16;23.02;98875.66;5135922;27;20042;-68
2021/12/27 06:18:19;;;;;;;1.80;1.60;;;;;;;18.18;23.45;98880.84;5116068;27;20100;-69
2021/12/27 06:20:44;;;;;;;2.63;1.67;;;;;;;18.18;23.19;98889.69;5136107;27;20474;-68
2021/12/27 06:23:10;;;;;;;2.20;1.65;;;;;;;18.17;22.95;98885.38;5135222;27;20058;-68
2021/12/27 06:25:35;;;;;;;2.38;1.90;;;;;;;18.15;23.12;98898.13;5135419;27;20092;-68
2021/12/27 06:28:01;;;;;;;2.72;1.80;;;;;;;18.13;23.24;98886.78;5134497;27;20039;-67
2021/12/27 06:30:26;;;;;;;1.83;1.45;;;;;;;18.15;23.19;98903.50;5135570;27;20035;-67
2021/12/27 06:32:52;;;;;;;2.45;1.70;;;;;;;18.16;23.27;98910.47;5135393;27;20470;-69
2021/12/27 06:35:18;;;;;;;2.13;1.73;;;;;;;18.14;23.27;98913.34;5135348;27;20027;-68
2021/12/27 06:37:46;;;;;;;2.33;1.90;;;;;;;18.17;22.88;98917.50;5134614;27;20451;-66
2021/12/27 06:40:13;;;;;;;2.40;1.50;;;;;;;18.16;23.02;98921.19;5134822;27;20034;-68
2021/12/27 06:42:39;;;;;;;2.45;1.67;;;;;;;18.17;23.31;98920.16;5134806;27;20031;-68
2021/12/27 06:45:05;;;;;;;3.45;1.50;;;;;;;18.17;23.18;98914.81;5135245;27;20033;-68
2021/12/27 06:47:31;;;;;;;2.17;1.42;;;;;;;18.19;23.00;98926.19;5133962;27;20080;-69
2021/12/27 06:49:56;;;;;;;2.53;2.00;;;;;;;18.18;22.52;98921.03;5135050;27;20486;-69
2021/12/27 06:52:24;;;;;;;2.70;1.85;;;;;;;18.16;22.55;98926.53;5134092;27;20443;-68
2021/12/27 06:54:50;;;;;;;2.28;1.60;;;;;;;18.16;22.49;98937.25;5133545;27;20162;-69
2021/12/27 06:57:18;;;;;;;2.50;1.70;;;;;;;18.20;22.77;98933.19;5134465;27;20043;-68
2021/12/27 06:59:44;;;;;;;2.40;1.77;;;;;;;18.21;22.73;98934.84;5133803;27;20035;-68
2021/12/27 07:02:10;;;;;;;2.38;1.40;;;;;;;18.20;22.71;98930.50;5133613;27;20035;-68
2021/12/27 07:04:35;;;;;;;2.03;1.45;;;;;;;18.19;23.00;98938.75;5104634;28;20126;-68
2021/12/27 07:07:01;;;;;;;2.17;1.67;;;;;;;18.20;23.00;98925.16;5126781;27;20508;-68
2021/12/27 07:09:27;;;;;;;2.58;1.73;;;;;;;18.20;22.73;98935.88;5133937;27;20100;-68
2021/12/27 07:11:52;;;;;;;2.85;1.92;;;;;;;18.21;22.98;98939.41;5132745;27;20091;-68
2021/12/27 07:14:18;;;;;;;2.10;1.60;;;;;;;18.22;23.17;98941.88;5134574;27;20038;-68
2021/12/27 07:16:43;;;;;;;3.88;1.58;;;;;;;18.23;22.86;98937.38;5133350;27;20379;-68
2021/12/27 07:19:09;;;;;;;2.10;1.67;;;;;;;18.22;22.87;98936.53;5133932;27;20051;-69
2021/12/27 07:21:34;;;;;;;1.95;1.58;;;;;;;18.24;22.57;98949.72;5134217;27;20046;-69
2021/12/27 07:24:00;;;;;;;2.60;1.90;;;;;;;18.25;22.75;98951.38;5134158;27;20050;-69
2021/12/27 07:26:25;;;;;;;1.98;1.70;;;;;;;18.24;22.72;98942.53;5133725;27;20084;-68
2021/12/27 07:28:51;;;;;;;2.95;1.75;;;;;;;18.26;22.96;98945.84;5133641;27;20443;-68
2021/12/27 07:31:16;;;;;;;2.70;1.73;;;;;;;18.27;22.96;98947.53;5133928;27;20035;-66
2021/12/27 07:33:42;;;;;;;2.92;1.70;;;;;;;18.26;22.72;98951.22;5134257;27;20110;-66
2021/12/27 07:36:10;;;;;;;2.47;1.85;;;;;;;18.22;22.64;98963.28;5133802;27;20402;-67
2021/12/27 07:38:37;;;;;;;2.45;1.63;;;;;;;18.24;22.53;98955.06;5133658;27;20078;-67
2021/12/27 07:41:03;;;;;;;2.92;1.77;;;;;;;18.23;22.66;98959.59;5133829;27;20095;-67
2021/12/27 07:43:29;;;;;;;2.80;1.60;;;;;;;18.24;22.54;98966.63;5133878;27;20477;-67
2021/12/27 07:45:54;;;;;;;3.45;1.75;;;;;;;18.24;22.47;98966.63;5133967;27;20050;-70
2021/12/27 07:48:20;;;;;;;2.88;1.90;;;;;;;18.23;22.43;98973.00;5133888;27;20089;-69
2021/12/27 07:50:46;;;;;;;2.17;1.50;;;;;;;18.21;22.68;98975.03;5133849;27;20045;-68
2021/12/27 07:53:12;;;;;;;2.70;1.70;;;;;;;18.23;22.71;98974.84;5133516;27;20401;-68
2021/12/27 07:55:37;;;;;;;2.83;1.85;;;;;;;18.23;22.80;98985.56;5133503;27;20038;-67
2021/12/27 07:58:03;;;;;;;2.92;1.70;;;;;;;18.23;22.52;98989.06;5132350;27;20035;-67
2021/12/27 08:00:29;;;;;;;2.30;1.60;;;;;;;18.22;22.38;98978.56;5133398;27;20041;-68
2021/12/27 08:02:54;;;;;;;2.20;1.65;;;;;;;18.21;22.21;98993.78;5132544;27;20504;-69
2021/12/27 08:05:20;;;;;;;2.53;2.00;;;;;;;18.21;22.44;98999.13;5133430;27;20081;-67
2021/12/27 08:07:46;;;;;;;3.35;1.60;;;;;;;18.21;22.59;98996.44;5132556;27;20046;-67
2021/12/27 08:10:13;;;;;;;2.53;1.40;;;;;;;18.23;22.47;98997.09;5133466;27;20034;-69
2021/12/27 08:12:39;;;;;;;2.28;1.77;;;;;;;18.26;22.60;98998.56;5132741;27;20071;-66
2021/12/27 08:15:06;;;;;;;1.92;1.30;;;;;;;18.25;22.38;98986.19;5133448;27;20456;-70
2021/12/27 08:17:33;;;;;;;2.90;1.90;;;;;;;18.26;22.44;99003.91;5133221;27;20079;-69
2021/12/27 08:19:58;;;;;;;2.90;2.05;;;;;;;18.24;22.01;98998.75;5132065;27;20409;-68
2021/12/27 08:22:24;;;;;;;2.63;2.08;;;;;;;18.22;22.15;99005.31;5132166;27;20122;-69
2021/12/27 08:24:51;;;;;;;3.22;2.10;;;;;;;18.21;22.05;99009.00;5133009;28;20045;-67
2021/12/27 08:27:19;;;;;;;2.47;1.75;;;;;;;18.22;22.59;99016.84;5132863;28;20511;-69
2021/12/27 08:29:45;;;;;;;3.28;1.90;;;;;;;18.24;22.32;99008.63;5133294;28;20040;-68
2021/12/27 08:32:10;;;;;;;2.55;1.85;;;;;;;18.24;22.42;98997.91;5132550;28;20030;-68
2021/12/27 08:34:36;;;;;;;2.40;1.60;;;;;;;18.24;22.51;99000.59;5132036;28;20088;-67
2021/12/27 08:37:02;;;;;;;2.45;1.63;;;;;;;18.27;22.76;98990.38;5132886;28;20113;-68
2021/12/27 08:39:27;;;;;;;2.72;1.90;;;;;;;18.25;22.77;98997.75;5133224;28;20118;-67
2021/12/27 08:41:53;;;;;;;2.55;2.25;;;;;;;18.23;22.66;98996.28;5108082;28;20131;-68
2021/12/27 08:44:19;;;;;;;2.47;1.50;;;;;;;18.22;22.49;99000.78;5112262;28;20039;-68
2021/12/27 08:46:44;;;;;;;2.65;1.90;;;;;;;18.20;22.40;98992.09;5123100;28;20080;-66
2021/12/27 08:49:10;;;;;;;2.90;2.00;;;;;;;18.20;22.27;98992.09;5133157;28;20493;-68
2021/12/27 08:51:36;;;;;;;2.60;2.40;;;;;;;18.19;21.98;99001.16;5114401;28;20114;-66
2021/12/27 08:54:03;;;;;;;2.33;1.88;;;;;;;18.19;22.21;99000.34;5132393;28;20430;-67
2021/12/27 08:56:29;;;;;;;4.15;1.90;;;;;;;18.18;22.29;98994.13;5133049;28;20045;-67
2021/12/27 08:58:55;;;;;;;2.60;2.05;;;;;;;18.18;22.50;98994.13;5133128;28;20393;-66
2021/12/27 09:01:21;;;;;;;3.17;2.17;;;;;;;18.18;22.31;98988.78;5132648;28;20088;-67
2021/12/27 09:03:46;;;;;;;3.05;2.22;;;;;;;18.20;22.34;98984.06;5120702;28;20046;-68
2021/12/27 09:06:14;;;;;;;3.53;2.30;;;;;;;18.20;22.50;99002.81;5128946;28;20031;-70
2021/12/27 09:08:40;;;;;;;3.03;2.05;;;;;;;18.22;22.58;98994.63;5112842;28;20096;-67
2021/12/27 09:11:06;;;;;;;4.03;2.28;;;;;;;18.22;22.52;98998.09;5132934;28;20038;-69
2021/12/27 09:13:33;;;;;;;3.28;2.08;;;;;;;18.23;21.98;98993.59;5132254;28;20500;-68
2021/12/27 09:16:01;;;;;;;3.17;2.28;;;;;;;18.21;22.17;98987.59;5133220;28;20439;-67
2021/12/27 09:18:32;;;;;;;2.83;1.98;;;;;;;18.20;22.14;98996.63;5132510;28;20054;-66
2021/12/27 09:20:58;;;;;;;2.40;1.47;;;;;;;18.18;22.13;98996.00;5133360;27;20035;-65
2021/12/27 09:23:24;;;;;;;3.45;2.58;;;;;;;18.18;22.29;98994.13;5127372;27;20047;-67
2021/12/27 09:25:49;;;;;;;4.15;2.22;;;;;;;18.20;22.05;98999.31;5102897;27;20038;-67
2021/12/27 09:28:16;;;;;;;2.90;1.83;;;;;;;18.20;22.51;98994.78;5134445;27;20075;-66
2021/12/27 09:30:42;;;;;;;4.05;1.85;;;;;;;18.20;22.21;98999.31;5117940;27;20031;-66
2021/12/27 09:33:08;;;;;;;4.45;2.13;;;;;;;18.18;22.40;98999.47;5124093;27;20058;-66
2021/12/27 09:35:35;;;;;;;10.57;2.15;;;;;;;18.21;23.24;99006.34;5133994;27;20548;-66
2021/12/27 09:38:00;;;;;;;3.42;1.95;;;;;;;18.28;23.10;99015.28;5134538;27;20053;-66
2021/12/27 09:40:26;;;;;;;3.88;1.65;;;;;;;18.34;23.55;99014.56;5135066;27;20043;-66
2021/12/27 09:42:53;;;;;;;4.57;2.35;;;;;;;18.35;22.89;99008.19;5134103;27;20535;-66
2021/12/27 09:45:20;;;;;;;2.55;1.98;;;;;;;18.40;23.07;99018.34;5129970;27;20054;-67
2021/12/27 09:47:47;;;;;;;5.47;2.50;;;;;;;18.42;22.81;99011.78;5133928;27;20042;-65
2021/12/27 09:50:18;;;;;;;10.52;2.33;;;;;;;18.43;22.60;99026.84;5136139;27;20031;-66
2021/12/27 09:52:44;;;;;;;2.40;1.75;;;;;;;18.41;23.14;99010.13;5134833;27;20043;-65
2021/12/27 09:55:11;;;;;;;9.90;2.50;;;;;;;18.44;22.98;99019.66;5135713;27;20158;-66
2021/12/27 09:57:37;;;;;;;4.38;1.88;;;;;;;18.42;22.92;99017.13;5134171;27;20035;-67
2021/12/27 10:00:05;;;;;;;2.45;2.10;;;;;;;18.43;23.00;99028.69;5135514;27;20058;-67
2021/12/27 10:02:35;;;;;;;3.35;1.98;;;;;;;18.45;23.19;99022.13;5134164;27;20377;-64
2021/12/27 10:05:01;;;;;;;6.82;2.92;;;;;;;18.47;23.04;99026.47;5135092;27;20027;-67
2021/12/27 10:07:28;;;;;;;10.20;2.92;;;;;;;18.50;23.36;99026.09;5134980;27;20038;-66
2021/12/27 10:09:58;;;;;;;4.35;2.95;;;;;;;18.51;23.40;99028.59;5116033;27;20518;-66
2021/12/27 10:12:24;;;;;;;6.55;3.42;;;;;;;18.53;23.43;99025.75;5129379;27;20490;-68
2021/12/27 10:14:58;;;;;;;5.75;3.08;;;;;;;18.54;23.58;99024.69;5135401;27;20031;-66
2021/12/27 10:17:23;;;;;;;5.57;3.05;;;;;;;18.54;23.81;99035.41;5134313;27;20031;-68
2021/12/27 10:19:51;;;;;;;5.50;3.58;;;;;;;18.55;23.30;99029.88;5133815;27;20045;-68
2021/12/27 10:22:16;;;;;;;6.38;2.58;;;;;;;18.57;23.31;99030.53;5132284;27;20034;-64
2021/12/27 10:24:42;;;;;;;5.88;3.05;;;;;;;18.58;23.48;99034.88;5132657;27;20031;-67
2021/12/27 10:27:08;;;;;;;5.25;2.97;;;;;;;18.59;23.79;99036.56;5126798;27;20035;-65
2021/12/27 10:29:39;;;;;;;5.65;2.97;;;;;;;18.59;23.70;99036.56;5135386;27;20062;-65
2021/12/27 10:32:16;;;;;;;4.15;2.97;;;;;;;18.59;23.58;99039.22;5131897;27;20141;-65
2021/12/27 10:34:50;;;;;;;4.95;3.30;;;;;;;18.59;24.06;99039.22;5114788;28;20039;-67
2021/12/27 10:37:21;;;;;;;5.75;3.28;;;;;;;18.61;23.90;99044.41;5116202;27;20043;-67
2021/12/27 10:39:56;;;;;;;6.13;4.03;;;;;;;18.60;24.03;99040.03;5130580;27;20041;-68
2021/12/27 10:42:31;;;;;;;8.05;3.88;;;;;;;18.61;23.98;99037.16;5129566;27;20113;-68
2021/12/27 10:44:59;;;;;;;5.30;4.25;;;;;;;18.60;23.88;99032.81;5134747;27;20386;-65
2021/12/27 10:47:25;;;;;;;8.18;5.20;;;;;;;18.61;24.18;99042.53;5127367;27;20027;-64
2021/12/27 10:49:52;;;;;;;8.25;4.97;;;;;;;18.63;24.41;99045.03;5133339;27;20027;-64
2021/12/27 10:52:17;;;;;;;8.95;4.70;;;;;;;18.64;24.43;99040.50;5130892;27;20113;-64
2021/12/27 10:54:43;;;;;;;6.70;5.35;;;;;;;18.65;24.46;99050.19;5105236;27;20549;-66
2021/12/27 10:57:08;;;;;;;8.43;4.38;;;;;;;18.65;24.49;99042.16;5132641;27;20134;-65
2021/12/27 10:59:35;;;;;;;6.10;4.00;;;;;;;18.66;24.31;99046.50;5133167;27;20095;-64
2021/12/27 11:02:09;;;;;;;7.28;4.32;;;;;;;18.64;24.26;99036.00;5133688;27;20070;-66
2021/12/27 11:04:36;;;;;;;7.15;4.22;;;;;;;18.64;24.16;99046.72;5134700;27;20382;-65
2021/12/27 11:07:03;;;;;;;6.18;4.18;;;;;;;18.64;24.19;99035.13;5133922;27;20099;-65
2021/12/27 11:09:29;;;;;;;5.40;3.58;;;;;;;18.61;24.25;99037.16;5133624;27;20122;-65
2021/12/27 11:11:54;;;;;;;6.55;3.97;;;;;;;18.61;24.18;99047.06;5133273;27;20464;-65
2021/12/27 11:14:20;;;;;;;6.95;3.53;;;;;;;18.60;24.38;99043.53;5133571;27;20043;-65
2021/12/27 11:16:45;;;;;;;5.20;3.35;;;;;;;18.61;23.93;99050.56;5133907;27;20099;-66
2021/12/27 11:19:11;;;;;;;6.80;3.88;;;;;;;18.61;23.97;99042.53;5112391;28;20112;-65
2021/12/27 11:21:41;;;;;;;6.03;3.53;;;;;;;18.59;23.94;99051.78;5113364;28;20486;-65
2021/12/27 11:24:07;;;;;;;5.05;3.45;;;;;;;18.60;24.06;99053.44;5114318;28;20040;-66
2021/12/27 11:26:36;;;;;;;4.03;3.00;;;;;;;18.59;23.99;99055.31;5113772;28;20063;-65
2021/12/27 11:29:17;;;;;;;4.47;3.30;;;;;;;18.59;24.05;99051.78;5112622;28;20159;-64
2021/12/27 11:31:45;;;;;;;5.20;3.10;;;;;;;18.59;24.13;99052.63;5113103;28;20064;-66